sensor_id;sensor_type;location;lat;lon;timestamp;P1;durP1;ratioP1;P2;durP2;ratioP2
36923;SDS011;22841;50.252;18.688;2023-04-15T00:01:28;14.63;;;8.10;;
36923;SDS011;22841;50.252;18.688;2023-04-15T00:03:56;14.80;;;7.82;;
36923;SDS011;22841;50.252;18.688;2023-04-15T00:06:22;13.73;;;7.32;;
36923;SDS011;22841;50.252;18.688;2023-04-15T00:08:48;14.57;;;7.53;;
36923;SDS011;22841;50.252;18.688;2023-04-15T00:11:17;11.13;;;7.32;;
36923;SDS011;22841;50.252;18.688;2023-04-15T00:13:44;11.10;;;8.05;;
36923;SDS011;22841;50.252;18.688;2023-04-15T00:16:10;11.02;;;7.35;;
36923;SDS011;22841;50.252;18.688;2023-04-15T00:18:36;13.63;;;6.80;;
36923;SDS011;22841;50.252;18.688;2023-04-15T00:21:03;13.80;;;6.63;;
36923;SDS011;22841;50.252;18.688;2023-04-15T00:23:29;17.75;;;7.63;;
36923;SDS011;22841;50.252;18.688;2023-04-15T00:25:56;14.38;;;7.35;;
36923;SDS011;22841;50.252;18.688;2023-04-15T00:28:22;12.20;;;7.05;;
36923;SDS011;22841;50.252;18.688;2023-04-15T00:30:48;10.05;;;6.32;;
36923;SDS011;22841;50.252;18.688;2023-04-15T00:33:15;15.57;;;7.70;;
36923;SDS011;22841;50.252;18.688;2023-04-15T00:35:41;13.82;;;7.43;;
36923;SDS011;22841;50.252;18.688;2023-04-15T00:38:07;13.23;;;7.22;;
36923;SDS011;22841;50.252;18.688;2023-04-15T00:40:33;14.52;;;7.47;;
36923;SDS011;22841;50.252;18.688;2023-04-15T00:43:00;13.90;;;7.95;;
36923;SDS011;22841;50.252;18.688;2023-04-15T00:45:26;13.05;;;7.68;;
36923;SDS011;22841;50.252;18.688;2023-04-15T00:47:53;14.80;;;7.72;;
36923;SDS011;22841;50.252;18.688;2023-04-15T00:50:19;13.00;;;7.90;;
36923;SDS011;22841;50.252;18.688;2023-04-15T00:52:45;12.50;;;8.05;;
36923;SDS011;22841;50.252;18.688;2023-04-15T00:55:11;14.52;;;7.78;;
36923;SDS011;22841;50.252;18.688;2023-04-15T00:57:38;15.30;;;8.55;;
36923;SDS011;22841;50.252;18.688;2023-04-15T01:00:05;16.05;;;8.43;;
36923;SDS011;22841;50.252;18.688;2023-04-15T01:02:36;12.73;;;7.38;;
36923;SDS011;22841;50.252;18.688;2023-04-15T01:05:02;16.10;;;9.38;;
36923;SDS011;22841;50.252;18.688;2023-04-15T01:07:29;15.80;;;9.20;;
36923;SDS011;22841;50.252;18.688;2023-04-15T01:09:56;18.30;;;8.85;;
36923;SDS011;22841;50.252;18.688;2023-04-15T01:12:23;16.88;;;9.60;;
36923;SDS011;22841;50.252;18.688;2023-04-15T01:14:50;13.48;;;8.02;;
36923;SDS011;22841;50.252;18.688;2023-04-15T01:17:17;14.07;;;7.82;;
36923;SDS011;22841;50.252;18.688;2023-04-15T01:19:44;14.05;;;7.63;;
36923;SDS011;22841;50.252;18.688;2023-04-15T01:22:10;10.82;;;6.28;;
36923;SDS011;22841;50.252;18.688;2023-04-15T01:24:36;12.75;;;6.45;;
36923;SDS011;22841;50.252;18.688;2023-04-15T01:27:03;10.40;;;5.97;;
36923;SDS011;22841;50.252;18.688;2023-04-15T01:29:30;14.80;;;5.43;;
36923;SDS011;22841;50.252;18.688;2023-04-15T01:31:57;9.75;;;4.80;;
36923;SDS011;22841;50.252;18.688;2023-04-15T01:34:23;9.65;;;4.78;;
36923;SDS011;22841;50.252;18.688;2023-04-15T01:36:49;6.80;;;3.97;;
36923;SDS011;22841;50.252;18.688;2023-04-15T01:39:15;8.68;;;4.55;;
36923;SDS011;22841;50.252;18.688;2023-04-15T01:41:42;6.57;;;4.15;;
36923;SDS011;22841;50.252;18.688;2023-04-15T01:44:08;4.53;;;3.33;;
36923;SDS011;22841;50.252;18.688;2023-04-15T01:46:34;6.18;;;3.53;;
36923;SDS011;22841;50.252;18.688;2023-04-15T01:49:01;6.60;;;3.42;;
36923;SDS011;22841;50.252;18.688;2023-04-15T01:51:27;5.18;;;3.63;;
36923;SDS011;22841;50.252;18.688;2023-04-15T01:53:53;6.35;;;3.85;;
36923;SDS011;22841;50.252;18.688;2023-04-15T01:56:21;5.55;;;3.40;;
36923;SDS011;22841;50.252;18.688;2023-04-15T01:58:48;5.82;;;3.45;;
36923;SDS011;22841;50.252;18.688;2023-04-15T02:01:14;8.32;;;3.67;;
36923;SDS011;22841;50.252;18.688;2023-04-15T02:03:44;7.50;;;3.40;;
36923;SDS011;22841;50.252;18.688;2023-04-15T02:06:10;7.30;;;3.33;;
36923;SDS011;22841;50.252;18.688;2023-04-15T02:08:37;5.47;;;3.25;;
36923;SDS011;22841;50.252;18.688;2023-04-15T02:11:03;5.80;;;3.42;;
36923;SDS011;22841;50.252;18.688;2023-04-15T02:13:29;8.15;;;3.75;;
36923;SDS011;22841;50.252;18.688;2023-04-15T02:15:55;6.20;;;3.55;;
36923;SDS011;22841;50.252;18.688;2023-04-15T02:18:21;4.88;;;3.10;;
36923;SDS011;22841;50.252;18.688;2023-04-15T02:20:47;9.35;;;3.97;;
36923;SDS011;22841;50.252;18.688;2023-04-15T02:23:16;6.07;;;3.42;;
36923;SDS011;22841;50.252;18.688;2023-04-15T02:25:42;6.32;;;3.67;;
36923;SDS011;22841;50.252;18.688;2023-04-15T02:28:08;6.07;;;3.50;;
36923;SDS011;22841;50.252;18.688;2023-04-15T02:30:35;6.47;;;3.65;;
36923;SDS011;22841;50.252;18.688;2023-04-15T02:33:01;8.65;;;3.78;;
36923;SDS011;22841;50.252;18.688;2023-04-15T02:35:27;10.05;;;4.03;;
36923;SDS011;22841;50.252;18.688;2023-04-15T02:37:53;7.22;;;4.00;;
36923;SDS011;22841;50.252;18.688;2023-04-15T02:40:19;7.00;;;5.20;;
36923;SDS011;22841;50.252;18.688;2023-04-15T02:42:46;11.48;;;4.60;;
36923;SDS011;22841;50.252;18.688;2023-04-15T02:45:12;8.68;;;5.15;;
36923;SDS011;22841;50.252;18.688;2023-04-15T02:47:38;8.10;;;4.82;;
36923;SDS011;22841;50.252;18.688;2023-04-15T02:50:06;9.75;;;5.55;;
36923;SDS011;22841;50.252;18.688;2023-04-15T02:52:35;14.18;;;6.43;;
36923;SDS011;22841;50.252;18.688;2023-04-15T02:55:01;12.20;;;7.47;;
36923;SDS011;22841;50.252;18.688;2023-04-15T02:57:28;15.00;;;8.18;;
36923;SDS011;22841;50.252;18.688;2023-04-15T02:59:54;15.48;;;8.48;;
36923;SDS011;22841;50.252;18.688;2023-04-15T03:02:20;19.25;;;8.95;;
36923;SDS011;22841;50.252;18.688;2023-04-15T03:04:46;18.77;;;10.07;;
36923;SDS011;22841;50.252;18.688;2023-04-15T03:07:13;19.65;;;10.77;;
36923;SDS011;22841;50.252;18.688;2023-04-15T03:09:39;24.83;;;12.75;;
36923;SDS011;22841;50.252;18.688;2023-04-15T03:12:05;26.30;;;12.57;;
36923;SDS011;22841;50.252;18.688;2023-04-15T03:14:32;24.88;;;13.50;;
36923;SDS011;22841;50.252;18.688;2023-04-15T03:16:58;27.73;;;13.82;;
36923;SDS011;22841;50.252;18.688;2023-04-15T03:19:24;31.20;;;14.02;;
36923;SDS011;22841;50.252;18.688;2023-04-15T03:21:50;26.23;;;13.98;;
36923;SDS011;22841;50.252;18.688;2023-04-15T03:24:16;23.98;;;13.15;;
36923;SDS011;22841;50.252;18.688;2023-04-15T03:26:42;28.92;;;14.68;;
36923;SDS011;22841;50.252;18.688;2023-04-15T03:29:09;27.67;;;13.80;;
36923;SDS011;22841;50.252;18.688;2023-04-15T03:31:35;23.92;;;12.35;;
36923;SDS011;22841;50.252;18.688;2023-04-15T03:34:01;26.98;;;12.88;;
36923;SDS011;22841;50.252;18.688;2023-04-15T03:36:30;27.20;;;13.68;;
36923;SDS011;22841;50.252;18.688;2023-04-15T03:38:58;25.70;;;12.73;;
36923;SDS011;22841;50.252;18.688;2023-04-15T03:41:24;32.08;;;12.80;;
36923;SDS011;22841;50.252;18.688;2023-04-15T03:43:50;21.77;;;12.02;;
36923;SDS011;22841;50.252;18.688;2023-04-15T03:46:17;22.77;;;12.95;;
36923;SDS011;22841;50.252;18.688;2023-04-15T03:48:43;25.73;;;13.20;;
36923;SDS011;22841;50.252;18.688;2023-04-15T03:51:09;25.98;;;13.50;;
36923;SDS011;22841;50.252;18.688;2023-04-15T03:53:36;25.90;;;13.07;;
36923;SDS011;22841;50.252;18.688;2023-04-15T03:56:02;22.33;;;12.07;;
36923;SDS011;22841;50.252;18.688;2023-04-15T03:58:28;24.92;;;11.60;;
36923;SDS011;22841;50.252;18.688;2023-04-15T04:00:54;20.35;;;11.57;;
36923;SDS011;22841;50.252;18.688;2023-04-15T04:03:20;20.13;;;11.70;;
36923;SDS011;22841;50.252;18.688;2023-04-15T04:05:46;23.23;;;11.63;;
36923;SDS011;22841;50.252;18.688;2023-04-15T04:08:12;18.45;;;11.00;;
36923;SDS011;22841;50.252;18.688;2023-04-15T04:10:38;18.58;;;10.50;;
36923;SDS011;22841;50.252;18.688;2023-04-15T04:13:04;17.95;;;10.35;;
36923;SDS011;22841;50.252;18.688;2023-04-15T04:15:30;21.98;;;10.05;;
36923;SDS011;22841;50.252;18.688;2023-04-15T04:17:56;18.42;;;10.40;;
36923;SDS011;22841;50.252;18.688;2023-04-15T04:20:22;14.27;;;8.68;;
36923;SDS011;22841;50.252;18.688;2023-04-15T04:22:49;20.08;;;10.32;;
36923;SDS011;22841;50.252;18.688;2023-04-15T04:25:15;19.73;;;10.10;;
36923;SDS011;22841;50.252;18.688;2023-04-15T04:27:41;17.05;;;9.98;;
36923;SDS011;22841;50.252;18.688;2023-04-15T04:30:07;18.05;;;9.82;;
36923;SDS011;22841;50.252;18.688;2023-04-15T04:32:33;17.55;;;9.68;;
36923;SDS011;22841;50.252;18.688;2023-04-15T04:34:59;23.63;;;11.95;;
36923;SDS011;22841;50.252;18.688;2023-04-15T04:37:25;21.27;;;11.75;;
36923;SDS011;22841;50.252;18.688;2023-04-15T04:39:51;20.13;;;11.15;;
36923;SDS011;22841;50.252;18.688;2023-04-15T04:42:17;27.67;;;13.00;;
36923;SDS011;22841;50.252;18.688;2023-04-15T04:44:44;20.15;;;11.50;;
36923;SDS011;22841;50.252;18.688;2023-04-15T04:47:10;23.65;;;11.85;;
36923;SDS011;22841;50.252;18.688;2023-04-15T04:49:36;24.65;;;11.90;;
36923;SDS011;22841;50.252;18.688;2023-04-15T04:52:02;23.17;;;12.50;;
36923;SDS011;22841;50.252;18.688;2023-04-15T04:54:28;23.27;;;12.32;;
36923;SDS011;22841;50.252;18.688;2023-04-15T04:56:55;23.02;;;13.30;;
36923;SDS011;22841;50.252;18.688;2023-04-15T04:59:22;22.73;;;12.65;;
36923;SDS011;22841;50.252;18.688;2023-04-15T05:01:48;30.30;;;14.27;;
36923;SDS011;22841;50.252;18.688;2023-04-15T05:04:15;24.85;;;14.32;;
36923;SDS011;22841;50.252;18.688;2023-04-15T05:06:41;27.77;;;13.73;;
36923;SDS011;22841;50.252;18.688;2023-04-15T05:09:07;27.50;;;14.20;;
36923;SDS011;22841;50.252;18.688;2023-04-15T05:11:33;27.35;;;14.88;;
36923;SDS011;22841;50.252;18.688;2023-04-15T05:13:59;30.15;;;14.10;;
36923;SDS011;22841;50.252;18.688;2023-04-15T05:16:26;25.15;;;14.73;;
36923;SDS011;22841;50.252;18.688;2023-04-15T05:18:52;30.83;;;14.55;;
36923;SDS011;22841;50.252;18.688;2023-04-15T05:21:19;28.70;;;14.27;;
36923;SDS011;22841;50.252;18.688;2023-04-15T05:23:45;28.60;;;14.00;;
36923;SDS011;22841;50.252;18.688;2023-04-15T05:26:11;24.88;;;13.02;;
36923;SDS011;22841;50.252;18.688;2023-04-15T05:28:37;24.98;;;13.70;;
36923;SDS011;22841;50.252;18.688;2023-04-15T05:31:03;24.17;;;13.15;;
36923;SDS011;22841;50.252;18.688;2023-04-15T05:33:30;23.80;;;12.27;;
36923;SDS011;22841;50.252;18.688;2023-04-15T05:35:56;18.45;;;10.95;;
36923;SDS011;22841;50.252;18.688;2023-04-15T05:38:22;19.00;;;10.80;;
36923;SDS011;22841;50.252;18.688;2023-04-15T05:40:48;15.98;;;9.32;;
36923;SDS011;22841;50.252;18.688;2023-04-15T05:43:14;19.92;;;10.18;;
36923;SDS011;22841;50.252;18.688;2023-04-15T05:45:40;17.77;;;9.90;;
36923;SDS011;22841;50.252;18.688;2023-04-15T05:48:06;18.70;;;9.45;;
36923;SDS011;22841;50.252;18.688;2023-04-15T05:50:32;16.63;;;9.93;;
36923;SDS011;22841;50.252;18.688;2023-04-15T05:52:59;17.65;;;8.98;;
36923;SDS011;22841;50.252;18.688;2023-04-15T05:55:25;15.10;;;10.20;;
36923;SDS011;22841;50.252;18.688;2023-04-15T05:57:51;17.80;;;9.60;;
36923;SDS011;22841;50.252;18.688;2023-04-15T06:00:17;22.75;;;11.38;;
36923;SDS011;22841;50.252;18.688;2023-04-15T06:02:44;27.77;;;12.93;;
36923;SDS011;22841;50.252;18.688;2023-04-15T06:05:10;16.67;;;10.50;;
36923;SDS011;22841;50.252;18.688;2023-04-15T06:07:36;22.42;;;11.70;;
36923;SDS011;22841;50.252;18.688;2023-04-15T06:10:03;18.95;;;11.18;;
36923;SDS011;22841;50.252;18.688;2023-04-15T06:12:30;22.45;;;13.52;;
36923;SDS011;22841;50.252;18.688;2023-04-15T06:14:56;23.88;;;12.68;;
36923;SDS011;22841;50.252;18.688;2023-04-15T06:17:22;22.67;;;11.23;;
36923;SDS011;22841;50.252;18.688;2023-04-15T06:19:48;20.83;;;11.18;;
36923;SDS011;22841;50.252;18.688;2023-04-15T06:22:23;19.52;;;11.65;;
36923;SDS011;22841;50.252;18.688;2023-04-15T06:24:49;16.38;;;9.93;;
36923;SDS011;22841;50.252;18.688;2023-04-15T06:27:16;20.35;;;10.23;;
36923;SDS011;22841;50.252;18.688;2023-04-15T06:29:42;21.33;;;10.73;;
36923;SDS011;22841;50.252;18.688;2023-04-15T06:32:08;19.30;;;10.85;;
36923;SDS011;22841;50.252;18.688;2023-04-15T06:34:36;18.13;;;11.05;;
36923;SDS011;22841;50.252;18.688;2023-04-15T06:37:02;21.95;;;10.00;;
36923;SDS011;22841;50.252;18.688;2023-04-15T06:39:28;15.50;;;8.07;;
36923;SDS011;22841;50.252;18.688;2023-04-15T06:41:54;15.20;;;8.50;;
36923;SDS011;22841;50.252;18.688;2023-04-15T06:44:21;21.27;;;10.07;;
36923;SDS011;22841;50.252;18.688;2023-04-15T06:46:47;18.83;;;10.18;;
36923;SDS011;22841;50.252;18.688;2023-04-15T06:49:13;16.38;;;9.43;;
36923;SDS011;22841;50.252;18.688;2023-04-15T06:51:39;18.75;;;8.77;;
36923;SDS011;22841;50.252;18.688;2023-04-15T06:54:06;17.92;;;9.10;;
36923;SDS011;22841;50.252;18.688;2023-04-15T06:56:33;17.52;;;8.75;;
36923;SDS011;22841;50.252;18.688;2023-04-15T06:58:59;12.27;;;7.78;;
36923;SDS011;22841;50.252;18.688;2023-04-15T07:01:25;18.35;;;9.60;;
36923;SDS011;22841;50.252;18.688;2023-04-15T07:03:52;16.73;;;8.88;;
36923;SDS011;22841;50.252;18.688;2023-04-15T07:06:18;14.43;;;7.75;;
36923;SDS011;22841;50.252;18.688;2023-04-15T07:08:44;15.30;;;9.10;;
36923;SDS011;22841;50.252;18.688;2023-04-15T07:11:10;10.98;;;5.75;;
36923;SDS011;22841;50.252;18.688;2023-04-15T07:13:36;9.20;;;4.20;;
36923;SDS011;22841;50.252;18.688;2023-04-15T07:16:02;10.00;;;4.88;;
36923;SDS011;22841;50.252;18.688;2023-04-15T07:18:28;12.38;;;7.72;;
36923;SDS011;22841;50.252;18.688;2023-04-15T07:20:54;14.23;;;6.78;;
36923;SDS011;22841;50.252;18.688;2023-04-15T07:23:20;10.15;;;5.22;;
36923;SDS011;22841;50.252;18.688;2023-04-15T07:25:47;7.38;;;5.63;;
36923;SDS011;22841;50.252;18.688;2023-04-15T07:28:13;9.32;;;4.93;;
36923;SDS011;22841;50.252;18.688;2023-04-15T07:30:39;7.88;;;5.63;;
36923;SDS011;22841;50.252;18.688;2023-04-15T07:33:05;8.68;;;5.50;;
36923;SDS011;22841;50.252;18.688;2023-04-15T07:35:32;9.60;;;6.10;;
36923;SDS011;22841;50.252;18.688;2023-04-15T07:37:58;13.07;;;7.15;;
36923;SDS011;22841;50.252;18.688;2023-04-15T07:40:25;14.27;;;7.30;;
36923;SDS011;22841;50.252;18.688;2023-04-15T07:42:52;10.93;;;6.88;;
36923;SDS011;22841;50.252;18.688;2023-04-15T07:45:18;13.65;;;6.22;;
36923;SDS011;22841;50.252;18.688;2023-04-15T07:47:45;9.27;;;4.55;;
36923;SDS011;22841;50.252;18.688;2023-04-15T07:50:11;8.10;;;4.85;;
36923;SDS011;22841;50.252;18.688;2023-04-15T07:52:37;8.38;;;5.22;;
36923;SDS011;22841;50.252;18.688;2023-04-15T07:55:07;9.70;;;5.70;;
36923;SDS011;22841;50.252;18.688;2023-04-15T07:57:34;8.82;;;4.75;;
36923;SDS011;22841;50.252;18.688;2023-04-15T08:00:00;9.15;;;5.40;;
36923;SDS011;22841;50.252;18.688;2023-04-15T08:02:28;10.65;;;6.05;;
36923;SDS011;22841;50.252;18.688;2023-04-15T08:04:54;7.57;;;5.30;;
36923;SDS011;22841;50.252;18.688;2023-04-15T08:07:20;9.98;;;5.10;;
36923;SDS011;22841;50.252;18.688;2023-04-15T08:09:46;7.85;;;4.53;;
36923;SDS011;22841;50.252;18.688;2023-04-15T08:12:12;7.80;;;4.63;;
36923;SDS011;22841;50.252;18.688;2023-04-15T08:14:39;7.78;;;4.45;;
36923;SDS011;22841;50.252;18.688;2023-04-15T08:17:05;8.27;;;4.57;;
36923;SDS011;22841;50.252;18.688;2023-04-15T08:19:31;7.70;;;4.80;;
36923;SDS011;22841;50.252;18.688;2023-04-15T08:21:57;7.22;;;5.00;;
36923;SDS011;22841;50.252;18.688;2023-04-15T08:24:23;8.05;;;4.20;;
36923;SDS011;22841;50.252;18.688;2023-04-15T08:26:51;8.13;;;4.47;;
36923;SDS011;22841;50.252;18.688;2023-04-15T08:29:17;8.45;;;4.25;;
36923;SDS011;22841;50.252;18.688;2023-04-15T08:31:43;6.55;;;4.22;;
36923;SDS011;22841;50.252;18.688;2023-04-15T08:34:10;9.40;;;4.60;;
36923;SDS011;22841;50.252;18.688;2023-04-15T08:36:36;8.02;;;4.85;;
36923;SDS011;22841;50.252;18.688;2023-04-15T08:39:02;5.85;;;3.95;;
36923;SDS011;22841;50.252;18.688;2023-04-15T08:41:33;6.38;;;3.92;;
36923;SDS011;22841;50.252;18.688;2023-04-15T08:44:05;7.53;;;4.57;;
36923;SDS011;22841;50.252;18.688;2023-04-15T08:46:31;7.10;;;4.40;;
36923;SDS011;22841;50.252;18.688;2023-04-15T08:48:59;7.45;;;5.07;;
36923;SDS011;22841;50.252;18.688;2023-04-15T08:51:28;7.47;;;4.95;;
36923;SDS011;22841;50.252;18.688;2023-04-15T08:53:54;6.20;;;4.35;;
36923;SDS011;22841;50.252;18.688;2023-04-15T08:56:23;7.03;;;4.22;;
36923;SDS011;22841;50.252;18.688;2023-04-15T08:58:51;7.80;;;4.53;;
36923;SDS011;22841;50.252;18.688;2023-04-15T09:01:18;5.70;;;4.13;;
36923;SDS011;22841;50.252;18.688;2023-04-15T09:03:44;6.18;;;3.72;;
36923;SDS011;22841;50.252;18.688;2023-04-15T09:06:12;6.72;;;3.97;;
36923;SDS011;22841;50.252;18.688;2023-04-15T09:08:38;13.50;;;3.63;;
36923;SDS011;22841;50.252;18.688;2023-04-15T09:11:04;4.82;;;3.40;;
36923;SDS011;22841;50.252;18.688;2023-04-15T09:13:30;5.90;;;3.05;;
36923;SDS011;22841;50.252;18.688;2023-04-15T09:15:56;5.63;;;3.10;;
36923;SDS011;22841;50.252;18.688;2023-04-15T09:18:27;5.35;;;3.13;;
36923;SDS011;22841;50.252;18.688;2023-04-15T09:21:04;3.97;;;3.30;;
36923;SDS011;22841;50.252;18.688;2023-04-15T09:23:38;7.28;;;3.20;;
36923;SDS011;22841;50.252;18.688;2023-04-15T09:26:34;4.60;;;3.10;;
36923;SDS011;22841;50.252;18.688;2023-04-15T09:29:04;5.85;;;3.67;;
36923;SDS011;22841;50.252;18.688;2023-04-15T09:31:32;3.97;;;3.05;;
36923;SDS011;22841;50.252;18.688;2023-04-15T09:33:58;4.35;;;3.13;;
36923;SDS011;22841;50.252;18.688;2023-04-15T09:36:24;5.32;;;3.42;;
36923;SDS011;22841;50.252;18.688;2023-04-15T09:38:55;3.78;;;2.50;;
36923;SDS011;22841;50.252;18.688;2023-04-15T09:41:22;5.30;;;3.47;;
36923;SDS011;22841;50.252;18.688;2023-04-15T09:43:49;5.38;;;2.83;;
36923;SDS011;22841;50.252;18.688;2023-04-15T09:46:16;6.70;;;3.13;;
36923;SDS011;22841;50.252;18.688;2023-04-15T09:48:42;4.38;;;2.78;;
36923;SDS011;22841;50.252;18.688;2023-04-15T09:51:08;4.53;;;3.10;;
36923;SDS011;22841;50.252;18.688;2023-04-15T09:53:34;5.72;;;2.90;;
36923;SDS011;22841;50.252;18.688;2023-04-15T09:56:01;5.20;;;2.90;;
36923;SDS011;22841;50.252;18.688;2023-04-15T09:58:28;9.75;;;2.53;;
36923;SDS011;22841;50.252;18.688;2023-04-15T10:00:56;4.15;;;2.67;;
36923;SDS011;22841;50.252;18.688;2023-04-15T10:03:24;3.53;;;2.40;;
36923;SDS011;22841;50.252;18.688;2023-04-15T10:05:52;2.13;;;1.90;;
36923;SDS011;22841;50.252;18.688;2023-04-15T10:08:21;3.33;;;2.40;;
36923;SDS011;22841;50.252;18.688;2023-04-15T10:10:49;2.30;;;2.05;;
36923;SDS011;22841;50.252;18.688;2023-04-15T10:13:17;3.35;;;2.28;;
36923;SDS011;22841;50.252;18.688;2023-04-15T10:15:48;7.57;;;2.30;;
36923;SDS011;22841;50.252;18.688;2023-04-15T10:18:26;4.13;;;2.58;;
36923;SDS011;22841;50.252;18.688;2023-04-15T10:20:53;3.72;;;2.47;;
36923;SDS011;22841;50.252;18.688;2023-04-15T10:23:21;6.15;;;2.85;;
36923;SDS011;22841;50.252;18.688;2023-04-15T10:25:49;4.55;;;2.15;;
36923;SDS011;22841;50.252;18.688;2023-04-15T10:28:19;4.55;;;2.17;;
36923;SDS011;22841;50.252;18.688;2023-04-15T10:30:47;6.03;;;2.72;;
36923;SDS011;22841;50.252;18.688;2023-04-15T10:33:14;5.03;;;3.00;;
36923;SDS011;22841;50.252;18.688;2023-04-15T10:35:42;4.75;;;2.65;;
36923;SDS011;22841;50.252;18.688;2023-04-15T10:40:59;7.85;;;3.53;;
36923;SDS011;22841;50.252;18.688;2023-04-15T10:43:37;3.22;;;2.45;;
36923;SDS011;22841;50.252;18.688;2023-04-15T10:46:04;3.28;;;2.25;;
36923;SDS011;22841;50.252;18.688;2023-04-15T10:48:31;4.22;;;2.83;;
36923;SDS011;22841;50.252;18.688;2023-04-15T10:50:59;4.38;;;3.10;;
36923;SDS011;22841;50.252;18.688;2023-04-15T10:53:30;2.60;;;2.20;;
36923;SDS011;22841;50.252;18.688;2023-04-15T10:55:56;2.38;;;2.17;;
36923;SDS011;22841;50.252;18.688;2023-04-15T10:58:23;5.55;;;3.15;;
36923;SDS011;22841;50.252;18.688;2023-04-15T11:00:52;6.20;;;2.67;;
36923;SDS011;22841;50.252;18.688;2023-04-15T11:03:38;4.15;;;2.50;;
36923;SDS011;22841;50.252;18.688;2023-04-15T11:06:05;4.70;;;2.80;;
36923;SDS011;22841;50.252;18.688;2023-04-15T11:12:03;4.80;;;2.58;;
36923;SDS011;22841;50.252;18.688;2023-04-15T11:14:31;4.60;;;2.10;;
36923;SDS011;22841;50.252;18.688;2023-04-15T11:16:58;5.07;;;2.55;;
36923;SDS011;22841;50.252;18.688;2023-04-15T11:19:24;4.72;;;2.63;;
36923;SDS011;22841;50.252;18.688;2023-04-15T11:21:51;9.23;;;2.70;;
36923;SDS011;22841;50.252;18.688;2023-04-15T11:24:24;5.38;;;2.55;;
36923;SDS011;22841;50.252;18.688;2023-04-15T11:26:56;3.22;;;2.38;;
36923;SDS011;22841;50.252;18.688;2023-04-15T11:29:27;5.63;;;2.63;;
36923;SDS011;22841;50.252;18.688;2023-04-15T11:32:08;2.85;;;2.28;;
36923;SDS011;22841;50.252;18.688;2023-04-15T11:34:34;3.00;;;2.22;;
36923;SDS011;22841;50.252;18.688;2023-04-15T11:37:06;3.92;;;2.38;;
36923;SDS011;22841;50.252;18.688;2023-04-15T11:39:32;8.95;;;2.33;;
36923;SDS011;22841;50.252;18.688;2023-04-15T11:41:58;4.18;;;2.92;;
36923;SDS011;22841;50.252;18.688;2023-04-15T11:44:24;3.35;;;2.20;;
36923;SDS011;22841;50.252;18.688;2023-04-15T11:46:50;3.97;;;2.42;;
36923;SDS011;22841;50.252;18.688;2023-04-15T11:49:27;3.47;;;2.60;;
36923;SDS011;22841;50.252;18.688;2023-04-15T11:51:54;3.22;;;2.55;;
36923;SDS011;22841;50.252;18.688;2023-04-15T11:54:20;5.82;;;2.60;;
36923;SDS011;22841;50.252;18.688;2023-04-15T11:56:50;4.35;;;2.80;;
36923;SDS011;22841;50.252;18.688;2023-04-15T11:59:17;5.60;;;2.83;;
36923;SDS011;22841;50.252;18.688;2023-04-15T12:01:43;3.70;;;2.63;;
36923;SDS011;22841;50.252;18.688;2023-04-15T12:04:11;4.53;;;2.80;;
36923;SDS011;22841;50.252;18.688;2023-04-15T12:06:39;4.38;;;2.67;;
36923;SDS011;22841;50.252;18.688;2023-04-15T12:14:03;5.80;;;3.30;;
36923;SDS011;22841;50.252;18.688;2023-04-15T12:16:29;5.90;;;4.07;;
36923;SDS011;22841;50.252;18.688;2023-04-15T12:18:56;9.50;;;4.40;;
36923;SDS011;22841;50.252;18.688;2023-04-15T12:21:24;4.50;;;3.65;;
36923;SDS011;22841;50.252;18.688;2023-04-15T12:23:52;3.97;;;3.15;;
36923;SDS011;22841;50.252;18.688;2023-04-15T12:26:27;3.00;;;2.63;;
36923;SDS011;22841;50.252;18.688;2023-04-15T12:29:02;3.47;;;2.50;;
36923;SDS011;22841;50.252;18.688;2023-04-15T12:31:30;4.45;;;2.80;;
36923;SDS011;22841;50.252;18.688;2023-04-15T12:33:56;16.10;;;9.70;;
36923;SDS011;22841;50.252;18.688;2023-04-15T12:36:23;7.30;;;3.88;;
36923;SDS011;22841;50.252;18.688;2023-04-15T12:38:50;3.60;;;2.88;;
36923;SDS011;22841;50.252;18.688;2023-04-15T12:41:16;3.95;;;2.92;;
36923;SDS011;22841;50.252;18.688;2023-04-15T12:43:45;3.78;;;3.33;;
36923;SDS011;22841;50.252;18.688;2023-04-15T12:46:12;4.32;;;3.17;;
36923;SDS011;22841;50.252;18.688;2023-04-15T12:48:39;5.25;;;3.15;;
36923;SDS011;22841;50.252;18.688;2023-04-15T12:51:05;4.50;;;2.95;;
36923;SDS011;22841;50.252;18.688;2023-04-15T12:53:31;3.95;;;3.05;;
36923;SDS011;22841;50.252;18.688;2023-04-15T12:55:57;4.55;;;3.05;;
36923;SDS011;22841;50.252;18.688;2023-04-15T12:58:23;4.68;;;3.05;;
36923;SDS011;22841;50.252;18.688;2023-04-15T13:00:49;3.45;;;2.95;;
36923;SDS011;22841;50.252;18.688;2023-04-15T13:03:15;4.50;;;3.38;;
36923;SDS011;22841;50.252;18.688;2023-04-15T13:05:41;4.90;;;3.88;;
36923;SDS011;22841;50.252;18.688;2023-04-15T13:08:07;3.47;;;2.95;;
36923;SDS011;22841;50.252;18.688;2023-04-15T13:10:34;4.43;;;3.22;;
36923;SDS011;22841;50.252;18.688;2023-04-15T13:13:03;4.25;;;3.35;;
36923;SDS011;22841;50.252;18.688;2023-04-15T13:15:30;4.40;;;2.78;;
36923;SDS011;22841;50.252;18.688;2023-04-15T13:17:56;6.93;;;3.90;;
36923;SDS011;22841;50.252;18.688;2023-04-15T13:20:22;6.85;;;4.18;;
36923;SDS011;22841;50.252;18.688;2023-04-15T13:22:49;16.13;;;7.18;;
36923;SDS011;22841;50.252;18.688;2023-04-15T13:25:17;5.63;;;3.25;;
36923;SDS011;22841;50.252;18.688;2023-04-15T13:27:43;7.53;;;4.72;;
36923;SDS011;22841;50.252;18.688;2023-04-15T13:30:10;7.90;;;4.65;;
36923;SDS011;22841;50.252;18.688;2023-04-15T13:32:36;9.15;;;5.60;;
36923;SDS011;22841;50.252;18.688;2023-04-15T13:35:02;7.82;;;4.82;;
36923;SDS011;22841;50.252;18.688;2023-04-15T13:37:29;5.95;;;3.92;;
36923;SDS011;22841;50.252;18.688;2023-04-15T13:39:56;5.30;;;3.78;;
36923;SDS011;22841;50.252;18.688;2023-04-15T13:42:22;4.47;;;3.63;;
36923;SDS011;22841;50.252;18.688;2023-04-15T13:44:49;5.40;;;3.65;;
36923;SDS011;22841;50.252;18.688;2023-04-15T13:47:18;4.72;;;3.72;;
36923;SDS011;22841;50.252;18.688;2023-04-15T13:49:45;5.68;;;3.95;;
36923;SDS011;22841;50.252;18.688;2023-04-15T13:52:11;7.60;;;4.40;;
36923;SDS011;22841;50.252;18.688;2023-04-15T13:54:37;15.07;;;7.43;;
36923;SDS011;22841;50.252;18.688;2023-04-15T13:57:04;11.70;;;6.75;;
36923;SDS011;22841;50.252;18.688;2023-04-15T13:59:34;7.40;;;4.70;;
36923;SDS011;22841;50.252;18.688;2023-04-15T14:02:00;18.30;;;8.80;;
36923;SDS011;22841;50.252;18.688;2023-04-15T14:04:27;20.60;;;10.05;;
36923;SDS011;22841;50.252;18.688;2023-04-15T14:06:53;22.70;;;9.77;;
36923;SDS011;22841;50.252;18.688;2023-04-15T14:09:20;16.83;;;8.55;;
36923;SDS011;22841;50.252;18.688;2023-04-15T14:11:48;16.45;;;8.15;;
36923;SDS011;22841;50.252;18.688;2023-04-15T14:14:15;21.52;;;11.55;;
36923;SDS011;22841;50.252;18.688;2023-04-15T14:16:42;20.30;;;9.52;;
36923;SDS011;22841;50.252;18.688;2023-04-15T14:19:08;15.85;;;7.68;;
36923;SDS011;22841;50.252;18.688;2023-04-15T14:21:34;10.32;;;5.72;;
36923;SDS011;22841;50.252;18.688;2023-04-15T14:24:00;14.85;;;8.75;;
36923;SDS011;22841;50.252;18.688;2023-04-15T14:26:26;14.85;;;8.82;;
36923;SDS011;22841;50.252;18.688;2023-04-15T14:28:52;22.85;;;12.82;;
36923;SDS011;22841;50.252;18.688;2023-04-15T14:31:18;25.42;;;13.93;;
36923;SDS011;22841;50.252;18.688;2023-04-15T14:33:44;18.08;;;9.63;;
36923;SDS011;22841;50.252;18.688;2023-04-15T14:36:11;26.70;;;13.25;;